createdAt,value
2019-04-27T00:00:39.092Z,14.23
2019-04-27T00:03:26.031Z,14.25
2019-04-27T00:06:08.471Z,14.54
2019-04-27T00:08:54.081Z,14.35
2019-04-27T00:11:37.441Z,14.65
2019-04-27T00:14:05.177Z,14.25
2019-04-27T00:16:40.496Z,14.60
2019-04-27T00:19:13.200Z,14.53
2019-04-27T00:21:47.165Z,14.55
2019-04-27T00:24:18.418Z,14.34
2019-04-27T00:26:47.874Z,13.92
2019-04-27T00:29:17.654Z,14.08
2019-04-27T00:31:47.568Z,13.89
2019-04-27T00:34:17.622Z,13.91
2019-04-27T00:37:01.342Z,13.67
2019-04-27T00:39:44.917Z,14.45
2019-04-27T00:42:16.344Z,14.19
2019-04-27T00:44:45.823Z,13.98
2019-04-27T00:47:15.342Z,14.20
2019-04-27T00:49:44.872Z,14.16
2019-04-27T00:52:14.333Z,14.29
2019-04-27T00:54:44.292Z,14.13
2019-04-27T00:57:33.723Z,14.80
2019-04-27T01:00:05.183Z,14.58
2019-04-27T01:02:43.519Z,14.29
2019-04-27T01:05:14.692Z,14.37
2019-04-27T01:07:44.163Z,14.50
2019-04-27T01:10:13.686Z,14.01
2019-04-27T01:12:43.125Z,14.08
2019-04-27T01:15:13.770Z,14.07
2019-04-27T01:17:44.590Z,14.24
2019-04-27T01:20:14.112Z,14.17
2019-04-27T01:22:43.572Z,13.68
2019-04-27T01:25:13.608Z,14.10
2019-04-27T01:27:53.758Z,13.86
2019-04-27T01:33:09.834Z,13.59
2019-04-27T01:35:40.351Z,13.61
2019-04-27T01:38:09.735Z,13.65
2019-04-27T01:40:39.126Z,12.99
2019-04-27T01:43:09.179Z,12.78
2019-04-27T01:45:39.203Z,13.17
2019-04-27T01:48:22.159Z,12.98
2019-04-27T01:50:39.645Z,12.97
2019-04-27T01:53:09.221Z,12.68
2019-04-27T01:55:40.708Z,12.65
2019-04-27T01:58:10.987Z,12.84
2019-04-27T02:00:59.504Z,12.61
2019-04-27T02:03:46.431Z,12.19
2019-04-27T02:06:15.994Z,12.34
2019-04-27T02:08:45.638Z,11.67
2019-04-27T02:11:15.171Z,12.00
2019-04-27T02:13:44.566Z,11.36
2019-04-27T02:16:14.195Z,10.81
2019-04-27T02:18:43.650Z,10.79
2019-04-27T02:21:13.126Z,10.93
2019-04-27T02:23:42.506Z,11.35
2019-04-27T02:26:11.900Z,10.95
2019-04-27T02:28:42.928Z,11.37
2019-04-27T02:31:19.765Z,11.44
2019-04-27T02:33:59.411Z,11.44
2019-04-27T02:36:30.349Z,11.40
2019-04-27T02:38:59.676Z,11.02
2019-04-27T02:41:29.800Z,11.47
2019-04-27T02:44:15.906Z,11.81
2019-04-27T02:46:45.367Z,11.28
2019-04-27T02:49:14.817Z,11.21
2019-04-27T02:51:49.594Z,11.10
2019-04-27T02:54:20.435Z,11.78
2019-04-27T02:56:52.783Z,11.63
2019-04-27T02:59:22.133Z,11.51
2019-04-27T03:01:53.649Z,11.45
2019-04-27T03:04:23.093Z,11.78
2019-04-27T03:06:52.472Z,11.91
2019-04-27T03:09:21.949Z,11.90
2019-04-27T03:11:51.892Z,11.73
2019-04-27T03:14:40.329Z,11.73
2019-04-27T03:17:26.825Z,11.70
2019-04-27T03:20:13.826Z,11.49
2019-04-27T03:22:44.864Z,11.60
2019-04-27T03:25:16.823Z,11.74
2019-04-27T03:27:53.956Z,11.31
2019-04-27T03:30:24.033Z,11.56
2019-04-27T03:32:56.642Z,11.81
2019-04-27T03:35:24.750Z,12.25
2019-04-27T03:37:54.194Z,11.83
2019-04-27T03:40:23.655Z,11.85
2019-04-27T03:42:54.754Z,12.26
2019-04-27T03:45:24.497Z,11.74
2019-04-27T03:47:54.350Z,11.70
2019-04-27T03:50:25.405Z,11.97
2019-04-27T03:53:10.315Z,11.53
2019-04-27T03:55:42.890Z,11.73
2019-04-27T03:58:21.726Z,11.64
2019-04-27T04:00:52.999Z,11.74
2019-04-27T04:03:22.461Z,11.71
2019-04-27T04:05:52.204Z,11.64
2019-04-27T04:08:21.983Z,11.82
2019-04-27T04:10:53.435Z,11.71
2019-04-27T04:13:24.768Z,11.94
2019-04-27T04:16:00.260Z,11.96
2019-04-27T04:18:31.791Z,11.82
2019-04-27T04:21:01.381Z,12.11
2019-04-27T04:23:30.777Z,11.82
2019-04-27T04:26:00.171Z,11.89
2019-04-27T04:28:29.718Z,12.02
2019-04-27T04:31:00.469Z,12.31
2019-04-27T04:33:30.458Z,12.12
2019-04-27T04:36:00.034Z,12.01
2019-04-27T04:38:30.520Z,12.14
2019-04-27T04:41:10.880Z,12.10
2019-04-27T04:43:41.900Z,12.20
2019-04-27T04:46:29.810Z,12.20
2019-04-27T04:49:00.336Z,12.41
2019-04-27T04:51:30.487Z,12.11
2019-04-27T04:54:00.903Z,12.23
2019-04-27T04:56:30.352Z,12.30
2019-04-27T04:59:00.246Z,12.41
2019-04-27T05:01:30.051Z,12.35
2019-04-27T05:03:59.529Z,12.38
2019-04-27T05:06:29.322Z,12.35
2019-04-27T05:08:59.530Z,12.55
2019-04-27T05:11:29.774Z,12.22
2019-04-27T05:14:01.466Z,11.61
2019-04-27T05:16:32.915Z,11.76
2019-04-27T05:19:02.416Z,11.94
2019-04-27T05:21:33.426Z,12.79
2019-04-27T05:24:02.818Z,12.58
2019-04-27T05:26:32.202Z,12.34
2019-04-27T05:29:01.593Z,12.71
2019-04-27T05:31:31.043Z,13.09
2019-04-27T05:34:00.436Z,12.68
2019-04-27T05:36:29.819Z,12.38
2019-04-27T05:38:59.718Z,12.56
2019-04-27T05:41:31.131Z,13.05
2019-04-27T05:44:03.314Z,13.23
2019-04-27T05:46:52.670Z,13.63
2019-04-27T05:49:29.364Z,13.97
2019-04-27T05:51:59.511Z,14.51
2019-04-27T05:54:29.399Z,15.13
2019-04-27T05:56:59.259Z,14.79
2019-04-27T05:59:29.845Z,14.60
2019-04-27T06:01:59.572Z,14.59
2019-04-27T06:04:30.256Z,15.27
2019-04-27T06:07:01.053Z,14.32
2019-04-27T06:09:30.493Z,14.97
2019-04-27T06:11:59.873Z,15.33
2019-04-27T06:14:29.399Z,14.80
2019-04-27T06:16:59.652Z,14.54
2019-04-27T06:19:29.259Z,14.71
2019-04-27T06:22:00.981Z,13.78
2019-04-27T06:24:30.642Z,14.21
2019-04-27T06:27:00.026Z,13.90
2019-04-27T06:29:29.414Z,13.69
2019-04-27T06:31:59.337Z,13.81
2019-04-27T06:34:31.013Z,14.06
2019-04-27T06:37:00.107Z,14.23
2019-04-27T06:39:29.931Z,14.30
2019-04-27T06:42:01.257Z,14.99
2019-04-27T06:44:30.596Z,14.82
2019-04-27T06:46:59.973Z,14.74
2019-04-27T06:49:29.536Z,14.97
2019-04-27T06:51:58.928Z,15.41
2019-04-27T06:54:29.139Z,15.79
2019-04-27T06:56:59.258Z,14.85
2019-04-27T06:59:29.062Z,15.17
2019-04-27T07:02:00.925Z,15.66
2019-04-27T07:04:30.384Z,15.03
2019-04-27T07:07:01.659Z,15.07
2019-04-27T07:09:30.859Z,15.41
2019-04-27T07:12:00.239Z,15.13
2019-04-27T07:14:29.643Z,15.55
2019-04-27T07:16:59.293Z,15.78
2019-04-27T07:19:30.205Z,15.71
2019-04-27T07:21:59.642Z,16.08
2019-04-27T07:24:29.340Z,15.18
2019-04-27T07:26:59.690Z,14.99
2019-04-27T07:29:29.574Z,15.47
2019-04-27T07:31:59.725Z,15.70
2019-04-27T07:34:30.530Z,15.74
2019-04-27T07:37:00.050Z,14.75
2019-04-27T07:39:29.528Z,16.04
2019-04-27T07:41:58.904Z,16.29
2019-04-27T07:44:41.819Z,16.31
2019-04-27T07:47:15.306Z,17.45
2019-04-27T07:49:45.528Z,19.20
2019-04-27T07:52:14.913Z,20.19
2019-04-27T07:54:44.432Z,20.98
2019-04-27T07:57:13.824Z,20.90
2019-04-27T07:59:43.269Z,21.30
2019-04-27T08:02:12.661Z,17.96
2019-04-27T08:04:42.061Z,18.21
2019-04-27T08:07:11.433Z,21.41
2019-04-27T08:09:40.823Z,21.52
2019-04-27T08:12:10.942Z,20.98
2019-04-27T08:14:41.436Z,20.51
2019-04-27T08:17:10.825Z,21.04
2019-04-27T08:19:40.275Z,23.09
2019-04-27T08:22:09.846Z,21.70
2019-04-27T08:24:39.687Z,22.54
2019-04-27T08:27:17.349Z,22.43
2019-04-27T08:30:04.635Z,22.55
2019-04-27T08:32:44.883Z,21.63
2019-04-27T08:35:14.499Z,22.78
2019-04-27T08:37:43.983Z,21.33
2019-04-27T08:40:14.772Z,21.87
2019-04-27T08:42:44.254Z,22.71
2019-04-27T08:45:13.776Z,23.04
2019-04-27T08:47:43.242Z,20.26
2019-04-27T08:50:13.824Z,22.90
2019-04-27T08:52:43.208Z,20.98
2019-04-27T08:55:13.035Z,20.94
2019-04-27T08:57:42.415Z,21.12
2019-04-27T09:00:12.356Z,22.54
2019-04-27T09:02:47.058Z,21.82
2019-04-27T09:05:13.214Z,21.48
2019-04-27T09:07:47.276Z,21.20
2019-04-27T09:10:18.808Z,19.55
2019-04-27T09:13:05.767Z,18.65
2019-04-27T09:15:39.431Z,20.30
2019-04-27T09:18:09.186Z,20.04
2019-04-27T09:20:51.910Z,19.35
2019-04-27T09:23:21.287Z,19.78
2019-04-27T09:25:50.676Z,21.71
2019-04-27T09:28:21.801Z,21.87
2019-04-27T09:30:51.287Z,22.75
2019-04-27T09:33:22.285Z,21.94
2019-04-27T09:35:51.826Z,22.77
2019-04-27T09:38:21.206Z,19.39
2019-04-27T09:40:50.597Z,19.09
2019-04-27T09:43:19.978Z,21.35
2019-04-27T09:45:49.386Z,21.08
2019-04-27T09:48:18.899Z,18.77
2019-04-27T09:50:48.271Z,18.21
2019-04-27T09:53:17.652Z,17.98
2019-04-27T09:55:47.048Z,19.32
2019-04-27T09:58:18.513Z,21.23
2019-04-27T10:00:49.415Z,20.98
2019-04-27T10:03:18.939Z,22.40
2019-04-27T10:05:48.328Z,20.17
2019-04-27T10:08:17.706Z,21.92
2019-04-27T10:10:47.992Z,19.58
2019-04-27T10:13:17.501Z,20.14
2019-04-27T10:15:46.888Z,19.18
2019-04-27T10:18:16.408Z,21.80
2019-04-27T10:20:58.174Z,20.72
2019-04-27T10:23:16.970Z,18.46
2019-04-27T10:25:46.844Z,18.15
2019-04-27T10:28:16.217Z,19.44
2019-04-27T10:30:45.842Z,18.73
2019-04-27T10:33:16.072Z,19.13
2019-04-27T10:35:47.211Z,19.42
2019-04-27T10:38:17.665Z,18.78
2019-04-27T10:40:47.029Z,18.65
2019-04-27T10:43:16.439Z,18.49
2019-04-27T10:45:46.405Z,19.95
2019-04-27T10:48:16.304Z,19.72
2019-04-27T10:50:46.929Z,20.69
2019-04-27T10:53:16.878Z,21.76
2019-04-27T10:55:47.450Z,21.56
2019-04-27T10:58:16.896Z,21.77
2019-04-27T11:00:50.931Z,24.15
2019-04-27T11:03:21.948Z,21.34
2019-04-27T11:06:05.912Z,24.80
2019-04-27T11:08:36.430Z,25.89
2019-04-27T11:11:06.301Z,24.45
2019-04-27T11:13:35.896Z,21.09
2019-04-27T11:16:06.844Z,22.77
2019-04-27T11:18:36.235Z,21.82
2019-04-27T11:21:05.813Z,23.02
2019-04-27T11:23:35.923Z,24.75
2019-04-27T11:26:07.464Z,24.12
2019-04-27T11:28:37.497Z,20.73
2019-04-27T11:31:07.919Z,24.80
2019-04-27T11:33:37.306Z,23.05
2019-04-27T11:36:17.242Z,21.39
2019-04-27T11:38:48.708Z,21.23
2019-04-27T11:41:18.457Z,20.41
2019-04-27T11:43:47.855Z,19.03
2019-04-27T11:46:17.248Z,19.01
2019-04-27T11:48:47.063Z,18.99
2019-04-27T11:51:17.421Z,18.21
2019-04-27T11:53:46.956Z,18.92
2019-04-27T11:56:17.733Z,18.92
2019-04-27T11:58:48.863Z,18.91
2019-04-27T12:01:18.269Z,18.31
2019-04-27T12:03:47.661Z,19.36
2019-04-27T12:06:17.023Z,18.80
2019-04-27T12:08:46.508Z,19.42
2019-04-27T12:11:16.774Z,20.97
2019-04-27T12:13:46.966Z,22.12
2019-04-27T12:16:17.640Z,21.22
2019-04-27T12:18:49.232Z,21.98
2019-04-27T12:21:19.616Z,21.83
2019-04-27T12:23:48.987Z,20.75
2019-04-27T12:26:31.813Z,21.49
2019-04-27T12:29:02.831Z,22.98
2019-04-27T12:31:42.870Z,20.58
2019-04-27T12:34:11.043Z,20.65
2019-04-27T12:36:40.435Z,20.03
2019-04-27T12:39:11.927Z,20.13
2019-04-27T12:41:42.544Z,19.67
2019-04-27T12:44:11.952Z,19.17
2019-04-27T12:46:41.339Z,19.56
2019-04-27T12:49:10.961Z,19.10
2019-04-27T12:51:40.418Z,19.46
2019-04-27T12:54:11.434Z,20.68
2019-04-27T12:56:42.471Z,21.98
2019-04-27T12:59:16.048Z,22.37
2019-04-27T13:01:46.250Z,21.76
2019-04-27T13:04:15.712Z,21.56
2019-04-27T13:06:46.880Z,21.28
2019-04-27T13:09:17.368Z,20.79
2019-04-27T13:11:46.756Z,20.80
2019-04-27T13:14:16.392Z,20.40
2019-04-27T13:16:47.468Z,20.58
2019-04-27T13:19:17.063Z,20.22
2019-04-27T13:21:47.047Z,20.13
2019-04-27T13:24:16.419Z,19.73
2019-04-27T13:26:45.800Z,20.43
2019-04-27T13:29:16.633Z,20.68
2019-04-27T13:31:46.129Z,20.57
2019-04-27T13:34:15.944Z,21.36
2019-04-27T13:36:45.794Z,19.53
2019-04-27T13:39:15.802Z,22.15
2019-04-27T13:41:46.328Z,22.15
2019-04-27T13:44:16.068Z,22.25
2019-04-27T13:47:02.873Z,23.15
2019-04-27T13:49:49.904Z,22.91
2019-04-27T13:52:21.009Z,21.65
2019-04-27T13:54:50.385Z,19.69
2019-04-27T13:57:19.775Z,20.20
2019-04-27T13:59:49.235Z,19.74
2019-04-27T14:02:19.234Z,20.78
2019-04-27T14:04:48.975Z,21.78
2019-04-27T14:07:18.217Z,20.09
2019-04-27T14:09:48.643Z,19.97
2019-04-27T14:12:21.188Z,19.26
2019-04-27T14:14:51.066Z,19.31
2019-04-27T14:17:20.577Z,19.52
2019-04-27T14:19:49.987Z,19.94
2019-04-27T14:22:19.505Z,20.42
2019-04-27T14:24:49.054Z,20.44
2019-04-27T14:27:20.037Z,19.44
2019-04-27T14:29:49.410Z,20.00
2019-04-27T14:32:18.931Z,20.13
2019-04-27T14:34:50.343Z,19.82
2019-04-27T14:37:19.483Z,18.84
2019-04-27T14:39:48.863Z,18.66
2019-04-27T14:42:19.165Z,18.42
2019-04-27T14:44:49.068Z,18.74
2019-04-27T14:47:18.887Z,18.45
2019-04-27T14:49:49.148Z,17.82
2019-04-27T14:52:18.944Z,18.15
2019-04-27T14:54:50.895Z,18.10
2019-04-27T14:57:20.419Z,17.77
2019-04-27T14:59:50.058Z,18.27
2019-04-27T15:02:19.440Z,18.36
2019-04-27T15:04:49.800Z,18.12
2019-04-27T15:07:19.341Z,18.40
2019-04-27T15:09:49.686Z,17.39
2019-04-27T15:12:25.728Z,17.69
2019-04-27T15:14:53.258Z,17.86
2019-04-27T15:17:25.576Z,18.18
2019-04-27T15:20:00.380Z,17.87
2019-04-27T15:22:31.108Z,17.66
2019-04-27T15:25:12.536Z,17.61
2019-04-27T15:27:37.472Z,18.11
2019-04-27T15:30:11.537Z,18.22
2019-04-27T15:32:42.036Z,18.09
2019-04-27T15:35:14.151Z,17.27
2019-04-27T15:37:50.992Z,18.68
2019-04-27T15:40:24.745Z,18.35
2019-04-27T15:42:55.764Z,19.20
2019-04-27T15:45:25.155Z,18.51
2019-04-27T15:47:54.990Z,19.01
2019-04-27T15:50:28.495Z,18.35
2019-04-27T15:52:55.694Z,18.64
2019-04-27T15:55:34.432Z,18.31
2019-04-27T15:57:56.311Z,18.54
2019-04-27T16:00:28.850Z,18.61
2019-04-27T16:02:59.369Z,18.22
2019-04-27T16:05:32.307Z,18.22
2019-04-27T16:08:05.968Z,17.69
2019-04-27T16:10:32.665Z,17.77
2019-04-27T16:13:06.826Z,17.27
2019-04-27T16:15:34.128Z,17.67
2019-04-27T16:18:03.692Z,17.74
2019-04-27T16:20:34.272Z,18.35
2019-04-27T16:23:04.915Z,18.09
2019-04-27T16:25:47.862Z,18.16
2019-04-27T16:28:09.797Z,17.65
2019-04-27T16:30:39.041Z,16.75
2019-04-27T16:33:08.761Z,16.90
2019-04-27T16:35:39.579Z,17.45
2019-04-27T16:38:13.076Z,18.01
2019-04-27T16:40:42.593Z,17.17
2019-04-27T16:43:11.971Z,17.43
2019-04-27T16:45:41.361Z,17.53
2019-04-27T16:48:11.309Z,17.54
2019-04-27T16:50:41.135Z,17.71
2019-04-27T16:53:12.608Z,18.16
2019-04-27T16:55:42.009Z,17.76
2019-04-27T16:58:16.017Z,17.90
2019-04-27T17:00:43.456Z,17.90
2019-04-27T17:03:12.848Z,18.46
2019-04-27T17:05:42.411Z,17.11
2019-04-27T17:08:21.596Z,17.01
2019-04-27T17:10:43.533Z,16.63
2019-04-27T17:13:14.724Z,16.93
2019-04-27T17:15:53.563Z,17.61
2019-04-27T17:18:25.490Z,16.78
2019-04-27T17:21:02.694Z,16.39
2019-04-27T17:23:31.429Z,16.59
2019-04-27T17:26:06.280Z,16.56
2019-04-27T17:28:51.475Z,15.99
2019-04-27T17:31:22.573Z,16.84
2019-04-27T17:33:53.591Z,16.32
2019-04-27T17:36:22.997Z,16.38
2019-04-27T17:38:52.396Z,16.10
2019-04-27T17:41:21.982Z,15.93
2019-04-27T17:43:52.360Z,16.00
2019-04-27T17:46:22.074Z,15.92
2019-04-27T17:48:51.499Z,14.97
2019-04-27T17:51:20.888Z,14.64
2019-04-27T17:53:50.285Z,14.41
2019-04-27T17:56:19.671Z,14.80
2019-04-27T17:58:49.121Z,15.14
2019-04-27T18:01:23.407Z,14.22
2019-04-27T18:03:58.417Z,14.50
2019-04-27T18:06:24.518Z,14.51
2019-04-27T18:08:55.026Z,14.36
2019-04-27T18:11:23.071Z,13.87
2019-04-27T18:13:55.927Z,13.69
2019-04-27T18:16:23.881Z,13.56
2019-04-27T18:19:08.016Z,13.35
2019-04-27T18:21:32.075Z,13.35
2019-04-27T18:24:03.094Z,13.83
2019-04-27T18:26:46.176Z,13.65
2019-04-27T18:29:05.418Z,14.06
2019-04-27T18:31:34.949Z,13.65
2019-04-27T18:34:09.906Z,13.24
2019-04-27T18:36:37.924Z,13.44
2019-04-27T18:39:10.448Z,13.21
2019-04-27T18:41:49.313Z,13.13
2019-04-27T18:44:12.342Z,13.12
2019-04-27T18:46:41.762Z,12.49
2019-04-27T18:49:22.620Z,12.49
2019-04-27T18:52:03.696Z,12.43
2019-04-27T18:54:28.835Z,12.43
2019-04-27T18:57:04.156Z,12.65
2019-04-27T18:59:29.375Z,12.65
2019-04-27T19:01:58.769Z,12.50
2019-04-27T19:04:28.225Z,12.32
2019-04-27T19:06:58.490Z,12.00
2019-04-27T19:09:28.771Z,11.88
2019-04-27T19:11:58.153Z,11.90
2019-04-27T19:14:28.290Z,11.38
2019-04-27T19:16:58.810Z,11.59
2019-04-27T19:19:28.229Z,11.69
2019-04-27T19:21:58.950Z,11.42
2019-04-27T19:24:28.443Z,11.24
2019-04-27T19:26:59.473Z,11.42
2019-04-27T19:29:30.566Z,11.38
2019-04-27T19:32:03.930Z,11.46
2019-04-27T19:34:33.375Z,11.05
2019-04-27T19:37:02.767Z,11.19
2019-04-27T19:39:32.225Z,10.77
2019-04-27T19:42:03.861Z,10.72
2019-04-27T19:44:32.704Z,10.92
2019-04-27T19:47:02.105Z,11.16
2019-04-27T19:49:31.915Z,11.20
2019-04-27T19:52:01.321Z,11.08
2019-04-27T19:54:30.953Z,10.92
2019-04-27T19:57:00.347Z,10.77
2019-04-27T19:59:34.205Z,10.68
2019-04-27T20:02:05.505Z,10.75
2019-04-27T20:04:36.537Z,10.44
2019-04-27T20:07:05.995Z,10.47
2019-04-27T20:09:37.144Z,10.38
2019-04-27T20:12:08.180Z,10.18
2019-04-27T20:14:55.517Z,10.03
2019-04-27T20:17:31.263Z,10.35
2019-04-27T20:20:02.149Z,10.07
2019-04-27T20:22:32.359Z,10.17
2019-04-27T20:25:02.124Z,10.05
2019-04-27T20:27:44.982Z,10.08
2019-04-27T20:30:06.315Z,10.05
2019-04-27T20:32:35.247Z,9.99
2019-04-27T20:35:06.889Z,10.16
2019-04-27T20:37:36.329Z,9.97
2019-04-27T20:40:07.945Z,9.72
2019-04-27T20:42:37.318Z,9.52
2019-04-27T20:45:07.174Z,9.46
2019-04-27T20:47:37.276Z,9.44
2019-04-27T20:50:07.185Z,9.65
2019-04-27T20:52:41.024Z,10.08
2019-04-27T20:55:11.498Z,9.84
2019-04-27T20:57:41.858Z,9.79
2019-04-27T21:00:13.842Z,10.77
2019-04-27T21:02:55.605Z,10.56
2019-04-27T21:05:41.458Z,10.50
2019-04-27T21:08:12.211Z,10.00
2019-04-27T21:10:42.155Z,9.59
2019-04-27T21:13:12.061Z,9.45
2019-04-27T21:15:42.092Z,9.05
2019-04-27T21:18:12.189Z,8.54
2019-04-27T21:20:42.136Z,8.95
2019-04-27T21:23:12.254Z,9.00
2019-04-27T21:25:42.332Z,9.16
2019-04-27T21:28:18.089Z,8.90
2019-04-27T21:30:44.067Z,9.11
2019-04-27T21:33:13.515Z,8.98
2019-04-27T21:35:42.890Z,9.11
2019-04-27T21:38:12.449Z,9.16
2019-04-27T21:40:42.424Z,9.13
2019-04-27T21:43:14.623Z,8.99
2019-04-27T21:45:44.003Z,9.11
2019-04-27T21:48:13.393Z,9.20
2019-04-27T21:50:42.762Z,9.16
2019-04-27T21:56:21.087Z,8.09
2019-04-27T21:58:51.194Z,8.25
2019-04-27T22:01:23.020Z,8.31
2019-04-27T22:03:52.925Z,8.42
2019-04-27T22:06:22.599Z,8.35
2019-04-27T22:08:53.122Z,8.12
2019-04-27T22:11:22.737Z,8.03
2019-04-27T22:13:52.178Z,7.88
2019-04-27T22:16:21.859Z,8.18
2019-04-27T22:18:52.199Z,8.46
2019-04-27T22:21:21.845Z,8.14
2019-04-27T22:23:52.778Z,8.54
2019-04-27T22:26:22.168Z,8.45
2019-04-27T22:28:52.185Z,8.43
2019-04-27T22:31:22.679Z,9.30
2019-04-27T22:33:54.515Z,9.00
2019-04-27T22:36:23.282Z,8.65
2019-04-27T22:38:54.235Z,8.37
2019-04-27T22:41:41.694Z,9.00
2019-04-27T22:44:29.204Z,8.88
2019-04-27T22:46:58.810Z,8.67
2019-04-27T22:49:31.190Z,8.40
2019-04-27T22:52:01.561Z,8.41
2019-04-27T22:54:31.921Z,8.53
2019-04-27T22:57:03.042Z,8.31
2019-04-27T22:59:45.977Z,8.14
2019-04-27T23:02:17.065Z,8.34
2019-04-27T23:04:49.124Z,8.39
2019-04-27T23:07:21.153Z,8.27
2019-04-27T23:09:51.645Z,8.37
2019-04-27T23:12:22.971Z,8.39
2019-04-27T23:14:52.470Z,8.24
2019-04-27T23:17:41.497Z,8.30
2019-04-27T23:20:11.676Z,7.97
2019-04-27T23:22:41.107Z,8.33
2019-04-27T23:25:11.269Z,8.40
2019-04-27T23:27:41.678Z,8.65
2019-04-27T23:30:11.442Z,8.23
2019-04-27T23:32:48.151Z,8.36
2019-04-27T23:35:17.532Z,8.02
2019-04-27T23:37:47.154Z,7.87
2019-04-27T23:40:17.674Z,7.92
2019-04-27T23:42:47.610Z,8.11
2019-04-27T23:45:18.149Z,7.50
2019-04-27T23:47:48.287Z,7.56
2019-04-27T23:50:18.393Z,7.93
2019-04-27T23:52:59.241Z,8.09
2019-04-27T23:55:36.431Z,8.08
2019-04-27T23:58:05.802Z,8.00
